Aviation Digital Data Service (ADDS)

Output produced by METARs form (1645 UTC 20 January 2019)
found at http://www.aviationweather.gov/metar/data/
 
EGAA 201620Z 32008KT 9999 FEW017 SCT023 05/02 Q1023
TAF EGAA 201101Z 2012/2112 33012KT 9999 FEW020 SCT040 
     BECMG 2018/2021 VRB03KT 
     PROB30 2022/2107 0300 FZFG BKN000 
     BECMG 2107/2110 18013KT
       
EGPL 201620Z 28005KT 9999 FEW022CB 05/01 Q1021
TAF AMD EGPL 201624Z 2016/2018 30014KT 9999 FEW030 SCT040 
     PROB30 
     TEMPO 2016/2018 6000 SHRA BKN012
       
EGUB 201550Z AUTO 34003KT 9999 // FEW030/// 03/M01 Q1020
EGKB 201620Z 01007KT CAVOK 01/M03 Q1019
TAF EGKB 201404Z 2015/2022 02005KT 9999 FEW020 
     PROB30 2017/2021 8000
       
EGBB 201620Z 33004KT 9000 OVC012 05/02 Q1020
TAF EGBB 201101Z 2012/2112 11003KT 9999 SCT020 
     TEMPO 2012/2020 8000 BKN014 
     PROB30 2020/2110 4000 BR BKN004
       
EGNH 201620Z 23002KT 7000 BKN030 05/04 Q1021
TAF EGNH 201357Z 2015/2021 VRB03KT 6000 BKN035 
     BECMG 2015/2018 9999 
     TEMPO 2015/2021 6000 -RADZ BKN012 
     BECMG 2018/2021 35010KT
       
EGDM 201550Z 35007KT CAVOK 04/00 Q1020 BLU NOSIG
TAF EGDM 201346Z 2015/2018 03005KT 9999 FEW015 
     PROB30 
     TEMPO 2015/2018 SCT015
       
EGHH 201620Z 01009KT CAVOK 04/00 Q1020
TAF EGHH 201402Z 2015/2024 03006KT 9999 SCT015 
     PROB30 
     TEMPO 2015/2024 9000 BKN014
       
EGGD 201620Z AUTO 06004KT 8000 BKN013 BKN021 OVC025 04/03 Q1020
TAF EGGD 201058Z 2012/2112 07010KT 6000 BKN005 
     BECMG 2012/2015 01005KT 9999 SCT010 
     TEMPO 2015/2112 4000 BR BKN008 
     PROB30 
     TEMPO 2015/2112 BKN004
       
EGVN 201550Z 35004KT 9999 BKN034 04/01 Q1020 NOSIG
TAF EGVN 201623Z 2018/2118 36003KT 9999 SCT030 
     BECMG 2018/2021 5000 HZ 
     PROB30 
     TEMPO 2018/2101 SCT012 
     BECMG 2022/2101 3000 BR 
     TEMPO 2101/2112 SCT010 
     PROB40 
     TEMPO 2101/2109 SCT004 
     PROB30 2102/2108 0500 FG BKN000 
     BECMG 2108/2110 6000 HZ 
     BECMG 2110/2112 9999 NSW 
     PROB30 
     TEMPO 2112/2115 SCT020
       
EGCK 201620Z VRB03KT 5000 -RA SCT004 BKN012 OVC027 07/05 Q1021
TAF AMD EGCK 201620Z 2016/2024 36008KT 9999 SCT020 BKN035 
     TEMPO 2016/2021 4000 RA BKN012
       
EGFF 201620Z AUTO 12003KT 8000 OVC009 06/05 Q1021
TAF EGFF 201101Z 2012/2112 05003KT 9999 BKN020 
     TEMPO 2012/2018 9000 BKN014 
     PROB30 
     TEMPO 2012/2018 SHRA BKN008 
     PROB40 2018/2109 4000 BR 
     BECMG 2110/2112 20010KT
       
EGLC 201620Z AUTO VRB04KT 9999 SCT026 05/M01 Q1020
TAF EGLC 201404Z 2015/2021 03005KT CAVOK 
     PROB30 2019/2021 8000
       
EGAC 201620Z AUTO 31006KT 9999 FEW038/// 06/02 Q1023
TAF EGAC 201401Z 2015/2022 34010KT 9999 FEW020 SCT040 
     BECMG 2018/2021 24005KT
       
EGXC 201550Z 26002KT 9999 FEW036 03/M01 Q1020 BLU
TAF EGXC 201624Z 2018/2112 25003KT 9999 BKN030 
     PROB40 
     TEMPO 2018/2021 BKN010 
     BECMG 2020/2023 4000 BR 
     PROB40 2023/2110 3000 SCT004 
     PROB30 2100/2109 0400 FG OVC000 
     BECMG 2110/2112 9999 NSW
       
EGWC 201050Z 11002KT 2000 BR OVC003 04/03 Q1018 YLO2
TAF EGWC 201034Z 2012/2018 02003KT 3000 BR BKN003 
     TEMPO 2013/2018 4000 BKN005 
     PROB30 2013/2017 5000 HZ 
     BECMG 2014/2016 BKN007 
     TEMPO 2016/2018 FEW010 SCT025
       
EGYD 201550Z AUTO 27004KT 9000 // OVC036/// 04/00 Q1020
TAF EGYD 201355Z 2015/2018 31005KT 9999 SCT025 
     PROB40 2015/2018 7000 HZ SCT008
       
EGDR 201550Z AUTO 02015KT 9999 // BKN048/// 08/04 Q1020
EGPN 201620Z 30003KT 9999 FEW015 03/01 Q1020
TAF EGPN 201353Z 2015/2021 25007KT 9999 SCT009
       
EGPD 201620Z AUTO 30011KT 9999 NCD 03/M01 Q1018 NOSIG
TAF EGPD 201057Z 2012/2112 28012KT 9999 SCT020 
     PROB40 
     TEMPO 2012/2014 6000 RA BKN008 
     BECMG 2021/2024 22008KT
       
EGNX 201620Z 26006KT 7000 FEW010 BKN030 03/02 Q1020
TAF AMD EGNX 201440Z 2014/2112 10006KT 9999 SCT025 
     TEMPO 2014/2021 8000 BKN009 
     TEMPO 2021/2112 6000 BKN012 
     PROB30 2021/2110 4000 BR BKN004
       
EGPH 201620Z 25005KT 9999 FEW031 02/01 Q1020
TAF AMD EGPH 201453Z 2015/2112 24005KT 8000 FEW010 
     BECMG 2015/2017 9999
       
EGTE 201620Z VRB03KT 9000 FEW012 BKN035 06/05 Q1020
TAF EGTE 201402Z 2015/2024 02005KT 9999 FEW009 SCT035 
     PROB30 2015/2023 4000 BR BKN014
       
EGVA 201616Z AUTO 00000KT M M OVC028 04/01 A3012 RMK AO2 SLP207 RVRNO $
EGLF 201620Z 34004KT CAVOK 03/M02 Q1020
TAF EGLF 201404Z 2015/2020 02005KT 9999 FEW022 
     PROB30 2016/2017 8000 
     BECMG 2017/2020 6000
       
EGKK 201620Z 03005KT 010V080 CAVOK 04/M03 Q1019
TAF EGKK 201102Z 2012/2118 03004KT 9999 FEW025 
     PROB30 2017/2019 8000 
     BECMG 2019/2022 6000 
     PROB30 2020/2111 2000 BR 
     PROB30 
     TEMPO 2104/2114 BKN010 
     BECMG 2111/2114 9999
       
EGPF 201620Z AUTO 25004KT 9999 NCD 04/01 Q1021
TAF AMD EGPF 201202Z 2012/2112 26005KT 2800 -DZ BR BKN009 
     BECMG 2012/2015 9999 NSW SCT020 
     TEMPO 2103/2106 4000 BR 
     BECMG 2109/2112 18010KT
       
EGBJ 201620Z 00000KT 8000 FEW012 BKN030 05/02 Q1021
TAF EGBJ 201402Z 2015/2019 12003KT 9000 FEW014 BKN040 
     TEMPO 2015/2019 BKN012 
     PROB30 
     TEMPO 2015/2019 9999 BKN008
       
EGNR 201620Z 33002KT 8000 BKN043 06/04 Q1022
TAF EGNR 201357Z 2015/2019 32004KT 4000 BR SCT010 
     BECMG 2015/2018 9999 NSW 
     TEMPO 2015/2019 6000 -RADZ BKN012
       
EGLL 201620Z AUTO 01004KT 340V050 9999 NCD 04/M02 Q1020
TAF EGLL 201052Z 2012/2118 01004KT 9999 FEW022 
     BECMG 2018/2021 7000 
     TEMPO 2021/2112 4000 BR BKN010 
     PROB30 
     TEMPO 2104/2110 1400 BKN003 
     BECMG 2112/2115 9999
       
EGNJ 201620Z 20004KT 7000 SCT012 BKN016 04/02 Q1020
TAF EGNJ 201357Z 2015/2024 22007KT 9000 SCT030 
     BECMG 2015/2018 9999 
     TEMPO 2015/2024 BKN012 
     TEMPO 2018/2024 6000 -RADZ 
     PROB30 2020/2024 2000 BR BKN006
       
EGPE 201620Z 26012KT 9999 FEW022 04/00 Q1020
TAF EGPE 201353Z 2015/2024 23007KT 9999 FEW010 SCT040
       
EGPI 201620Z 33009KT 9999 SCT035 04/01 Q1022
TAF EGPI 201357Z 2015/2018 33014KT 9999 SCT035
       
EGTK 201620Z 33004KT 9999 OVC031 04/01 Q1020
TAF EGTK 201402Z 2015/2023 04003KT 7000 FEW030 
     BECMG 2015/2018 9999 
     PROB30 
     TEMPO 2018/2023 9000 BKN014
       
EGQK 201550Z AUTO 24007KT 9999 FEW038/// 02/01 Q1019
EGPA 201450Z 30014KT 9999 FEW020 04/00 Q1015
TAF EGPA 201353Z 2015/2024 29012KT 9999 FEW015 SCT030 
     TEMPO 2015/2024 30015G25KT 6000 SHRA BKN012 
     PROB30 
     TEMPO 2015/2024 BKN008 
     BECMG 2021/2024 22010KT
       
EGUL 201556Z AUTO 00000KT 9999 CLR 03/M02 A3011 RMK AO2 SLP200 T00301023 $
EGNM 201620Z 27008KT 9999 FEW035 03/02 Q1019
TAF EGNM 201058Z 2012/2112 VRB03KT 2000 BR BKN002 
     BECMG 2012/2015 29010KT 9999 NSW SCT010 
     PROB30 
     TEMPO 2019/2102 4000 RADZ BKN010 
     PROB30 2106/2111 8000 
     BECMG 2109/2112 19010KT
       
EGXE 201550Z AUTO 35003KT 7000 HZ FEW027/// 04/02 Q1019
EGQL 201550Z 24010KT CAVOK 03/01 Q1019 BLU
TAF EGQL 201322Z 2015/2024 27010KT 9999 SCT045
       
EGXU 201550Z AUTO 17004KT 3600 // FEW040/// 05/03 Q1019
EGGP 201620Z 28003KT 6000 FEW014 SCT016 OVC033 06/04 Q1021
TAF EGGP 201059Z 2012/2112 VRB03KT 3000 -DZ BR OVC003 
     BECMG 2012/2015 9999 NSW SCT012 
     PROB40 
     TEMPO 2015/2023 5000 -RADZ BKN010 
     BECMG 2018/2021 33010KT 
     BECMG 2023/2102 6000 
     BECMG 2102/2105 VRB04KT 
     PROB40 2102/2110 2000 BR BKN003 
     BECMG 2109/2112 9999
       
EGAE 201620Z 28004KT 9999 FEW030 05/02 Q1024
TAF EGAE 201401Z 2015/2022 34015G25KT 9999 FEW020 SCT040 
     BECMG 2015/2018 30007KT 
     PROB30 
     TEMPO 2015/2019 7000 SHRA
       
EGQS 201550Z 28010KT 9999 -SHRA FEW020 SCT040 04/01 Q1019 BLU
TAF EGQS 201641Z 2018/2112 26012KT 9999 SCT045 
     PROB30 
     TEMPO 2108/2112 21015G25KT 7000 RA
       
EGGW 201620Z 34005KT CAVOK 01/M01 Q1020
TAF EGGW 201058Z 2012/2112 02005KT 9999 FEW040 
     BECMG 2019/2022 6000 BKN006 
     TEMPO 2020/2112 2000 BR BKN003 
     PROB30 
     TEMPO 2103/2111 0200 FZFG BKN001
       
EGMD 201620Z 02008KT 9999 FEW026 02/M01 Q1019
TAF EGMD 201404Z 2015/2024 04009KT 9999 FEW028 
     PROB30 2022/2024 8000
       
EGCC 201620Z AUTO 28004KT 9999 OVC029 05/02 Q1021 NOSIG
TAF EGCC 201059Z 2012/2118 VRB03KT 6000 OVC007 
     BECMG 2012/2015 9999 SCT015 
     TEMPO 2015/2024 6000 -RADZ BKN010 
     BECMG 2100/2103 5000 BR 
     PROB30 2100/2111 0300 FG VV/// 
     BECMG 2110/2113 9999 NSW
       
EGYM 201550Z AUTO 35005KT 9999 NCD 02/M02 Q1020
EGUN 201556Z AUTO 33003KT 9999 CLR 02/02 A3011 RMK AO2 SLP200 T00240023 .
EGNT 201620Z 25007KT 9999 FEW020 04/02 Q1019
TAF EGNT 201059Z 2012/2112 27004KT 8000 FEW035 
     BECMG 2012/2015 9999 
     PROB40 
     TEMPO 2012/2021 BKN012
       
EGWU 201550Z 36007KT 9999 FEW028 04/M02 Q1019 NOSIG
TAF EGWU 201631Z 2018/2112 34004KT 9999 FEW025 
     BECMG 2018/2021 7000 HZ 
     BECMG 2020/2023 FEW010 BKN020 
     TEMPO 2023/2110 BKN010 
     PROB30 
     TEMPO 2102/2109 3000 BR SCT005 
     BECMG 2109/2112 9999 NSW
       
EGSH 201620Z 34002KT 9999 FEW025 03/M01 Q1020 NOSIG
TAF EGSH 201402Z 2015/2024 03003KT 9999 FEW030
       
EGEO 201550Z 32011KT 9999 FEW024 06/01 Q1021
TAF AMD EGEO 201523Z 2015/2017 32015KT 9999 FEW010 SCT025
       
EGVO 201550Z AUTO 35006KT 9999 NCD 03/M00 Q1019
EGPK 201620Z 33003KT 9999 FEW018 SCT035 04/02 Q1022
TAF AMD EGPK 201423Z 2014/2112 VRB03KT 9999 SCT015 
     BECMG 2014/2017 32010KT 
     TEMPO 2014/2016 8000 
     BECMG 2018/2021 16007KT
       
EGXP 201550Z AUTO 25002KT 8000 // FEW015/// BKN036/// 03/01 Q1019
EGPM 201620Z AUTO 30019KT 9999 FEW005/// SCT013/// BKN033/// 04/01 Q1012
TAF AMD EGPM 201203Z 2012/2020 29015KT 9999 FEW025 
     TEMPO 2012/2018 30018G28KT 
     TEMPO 2012/2018 4000 SHRA BKN012 
     PROB40 
     TEMPO 2018/2020 4000 SHRASN BKN008
       
EGOS 201550Z AUTO 35003KT 4200 HZ FEW012/// SCT040/// BKN046/// 05/04 Q1020
EGKA 201550Z 36005KT 9000 NSC 04/M01 Q1019
TAF AMD EGKA 201602Z 2016/2018 02008KT 9000 FEW022 
     PROB30 2016/2018 9999
       
EGHI 201620Z 01006KT 9999 FEW035 03/M01 Q1020
TAF EGHI 201402Z 2015/2023 03003KT 9999 SCT015 
     PROB30 
     TEMPO 2015/2023 9000 BKN014
       
EGMC 201620Z 36004KT 9999 FEW028 03/M02 Q1020
TAF EGMC 201404Z 2015/2024 03005KT CAVOK 
     PROB30 2019/2022 8000 
     BECMG 2022/2024 6000
       
EGDX 201550Z 10001KT 7000 HZ BKN009 06/04 Q1020 GRN
TAF EGDX 201332Z 2015/2018 VRB03KT 7000 HZ BKN025 
     TEMPO 2015/2018 BKN020 
     PROB40 2015/2018 4000 BR BKN007 
     PROB30 
     TEMPO 2015/2018 3000 SCT005 BKN007
       
EGSS 201620Z AUTO 34003KT 9999 NCD 01/M02 Q1020
TAF EGSS 201058Z 2012/2118 02005KT 9999 FEW045 
     BECMG 2023/2103 6000 BKN006 
     TEMPO 2100/2114 2000 BR BKN004 
     PROB30 
     TEMPO 2105/2111 0200 FZFG BKN001
       
EGPO 201620Z 25005KT 9999 FEW028 02/M00 Q1020
TAF EGPO 201353Z 2015/2024 29012KT 9999 FEW010 SCT035 
     PROB40 
     TEMPO 2015/2024 6000 SHRA BKN012 
     BECMG 2018/2021 21010KT
       
EGPB 201620Z 30022KT 9999 FEW015 FEW020CB 05/M00 Q1013
TAF EGPB 201353Z 2015/2024 30019KT 9999 FEW010 SCT020 
     PROB40 
     TEMPO 2015/2018 30022G32KT 6000 SHRA BKN008 
     PROB30 
     TEMPO 2018/2024 4000 SHRASN BKN008
       
EGNV 201620Z 32005KT 9000 FEW020 04/01 Q1020
TAF EGNV 201357Z 2015/2022 24007KT 5000 BR FEW025 
     BECMG 2015/2018 9999 NSW 
     TEMPO 2018/2022 6000 -RADZ BKN012 
     PROB30 2020/2022 4000 BR BKN006
       
EGPU 201620Z AUTO 31011KT 280V340 9999 NCD 05/00 Q1022
TAF EGPU 201353Z 2015/2019 32012KT 9999 FEW035 
     PROB30 
     TEMPO 2015/2019 6000 SHRA BKN012
       
EGXZ 201550Z AUTO 08003KT 3400 HZ NCD 02/01 Q1020
EGOV 201550Z AUTO 36009KT 9999 FEW014/// BKN019/// 07/06 Q1021 RERA
EGXW 201550Z AUTO 27004KT 8000 HZ FEW025/// BKN034/// 04/01 Q1020
EGUW 201550Z AUTO 35003KT 9999 FEW024/// 01/M02 Q1019
EGPC 201620Z AUTO 27009KT 9999 -RA SCT037/// 02/00 Q1017
TAF AMD EGPC 201504Z 2015/2024 29015KT 9999 FEW005 SCT045 
     PROB40 
     TEMPO 2015/2024 6000 -SHRA 
     BECMG 2021/2024 22010KT
       
EGXT 201550Z AUTO 32003KT 9999 FEW028/// SCT048/// 02/M00 Q1019
EGDY 201550Z AUTO 03006KT 9999 OVC028/// 05/02 Q1020